sensor_id;sensor_type;location;lat;lon;timestamp;P1;durP1;ratioP1;P2;durP2;ratioP2
83139;SDS011;73027;54.208;19.128;2023-09-30T00:02:21;23.25;;;11.95;;
83139;SDS011;73027;54.208;19.128;2023-09-30T00:04:46;22.25;;;12.10;;
83139;SDS011;73027;54.208;19.128;2023-09-30T00:07:12;23.92;;;12.68;;
83139;SDS011;73027;54.208;19.128;2023-09-30T00:09:37;20.85;;;12.50;;
83139;SDS011;73027;54.208;19.128;2023-09-30T00:12:03;17.42;;;10.10;;
83139;SDS011;73027;54.208;19.128;2023-09-30T00:14:29;24.02;;;12.07;;
83139;SDS011;73027;54.208;19.128;2023-09-30T00:16:54;18.35;;;11.18;;
83139;SDS011;73027;54.208;19.128;2023-09-30T00:19:20;25.67;;;11.50;;
83139;SDS011;73027;54.208;19.128;2023-09-30T00:21:47;22.17;;;10.88;;
83139;SDS011;73027;54.208;19.128;2023-09-30T00:24:13;21.90;;;11.23;;
83139;SDS011;73027;54.208;19.128;2023-09-30T00:26:39;18.77;;;10.48;;
83139;SDS011;73027;54.208;19.128;2023-09-30T00:29:04;19.80;;;10.30;;
83139;SDS011;73027;54.208;19.128;2023-09-30T00:31:30;23.05;;;10.98;;
83139;SDS011;73027;54.208;19.128;2023-09-30T00:33:56;19.90;;;11.15;;
83139;SDS011;73027;54.208;19.128;2023-09-30T00:36:21;20.58;;;10.98;;
83139;SDS011;73027;54.208;19.128;2023-09-30T00:38:46;18.27;;;11.30;;
83139;SDS011;73027;54.208;19.128;2023-09-30T00:41:12;23.27;;;10.38;;
83139;SDS011;73027;54.208;19.128;2023-09-30T00:43:37;21.50;;;10.48;;
83139;SDS011;73027;54.208;19.128;2023-09-30T00:48:50;19.45;;;12.32;;
83139;SDS011;73027;54.208;19.128;2023-09-30T00:51:15;26.27;;;11.07;;
83139;SDS011;73027;54.208;19.128;2023-09-30T00:53:41;18.02;;;10.45;;
83139;SDS011;73027;54.208;19.128;2023-09-30T00:56:06;20.38;;;10.48;;
83139;SDS011;73027;54.208;19.128;2023-09-30T00:58:33;19.27;;;12.07;;
83139;SDS011;73027;54.208;19.128;2023-09-30T01:01:00;17.23;;;10.40;;
83139;SDS011;73027;54.208;19.128;2023-09-30T01:03:26;25.58;;;10.80;;
83139;SDS011;73027;54.208;19.128;2023-09-30T01:05:51;20.25;;;10.90;;
83139;SDS011;73027;54.208;19.128;2023-09-30T01:08:18;20.13;;;9.93;;
83139;SDS011;73027;54.208;19.128;2023-09-30T01:10:45;20.00;;;10.45;;
83139;SDS011;73027;54.208;19.128;2023-09-30T01:13:10;20.83;;;10.50;;
83139;SDS011;73027;54.208;19.128;2023-09-30T01:15:36;19.17;;;11.88;;
83139;SDS011;73027;54.208;19.128;2023-09-30T01:18:02;16.85;;;10.13;;
83139;SDS011;73027;54.208;19.128;2023-09-30T01:20:28;20.13;;;10.40;;
83139;SDS011;73027;54.208;19.128;2023-09-30T01:22:53;22.00;;;10.88;;
83139;SDS011;73027;54.208;19.128;2023-09-30T01:25:21;18.83;;;10.07;;
83139;SDS011;73027;54.208;19.128;2023-09-30T01:27:46;20.85;;;10.65;;
83139;SDS011;73027;54.208;19.128;2023-09-30T01:30:12;20.83;;;11.30;;
83139;SDS011;73027;54.208;19.128;2023-09-30T01:32:38;19.20;;;10.40;;
83139;SDS011;73027;54.208;19.128;2023-09-30T01:35:04;19.17;;;11.18;;
83139;SDS011;73027;54.208;19.128;2023-09-30T01:37:30;25.70;;;11.90;;
83139;SDS011;73027;54.208;19.128;2023-09-30T01:39:56;24.35;;;11.38;;
83139;SDS011;73027;54.208;19.128;2023-09-30T01:42:21;21.13;;;12.02;;
83139;SDS011;73027;54.208;19.128;2023-09-30T01:44:46;22.33;;;10.90;;
83139;SDS011;73027;54.208;19.128;2023-09-30T01:47:12;23.02;;;10.27;;
83139;SDS011;73027;54.208;19.128;2023-09-30T01:49:38;21.83;;;11.60;;
83139;SDS011;73027;54.208;19.128;2023-09-30T01:52:03;21.17;;;10.95;;
83139;SDS011;73027;54.208;19.128;2023-09-30T01:54:29;22.38;;;11.80;;
83139;SDS011;73027;54.208;19.128;2023-09-30T01:56:55;19.80;;;11.15;;
83139;SDS011;73027;54.208;19.128;2023-09-30T01:59:20;21.88;;;11.93;;
83139;SDS011;73027;54.208;19.128;2023-09-30T02:01:46;20.80;;;11.68;;
83139;SDS011;73027;54.208;19.128;2023-09-30T02:04:13;18.75;;;10.65;;
83139;SDS011;73027;54.208;19.128;2023-09-30T02:06:40;21.88;;;12.90;;
83139;SDS011;73027;54.208;19.128;2023-09-30T02:09:06;20.52;;;11.00;;
83139;SDS011;73027;54.208;19.128;2023-09-30T02:11:33;22.27;;;11.90;;
83139;SDS011;73027;54.208;19.128;2023-09-30T02:13:59;22.65;;;11.25;;
83139;SDS011;73027;54.208;19.128;2023-09-30T02:16:25;20.58;;;11.35;;
83139;SDS011;73027;54.208;19.128;2023-09-30T02:18:51;24.52;;;11.98;;
83139;SDS011;73027;54.208;19.128;2023-09-30T02:21:17;20.60;;;11.18;;
83139;SDS011;73027;54.208;19.128;2023-09-30T02:23:42;20.75;;;12.27;;
83139;SDS011;73027;54.208;19.128;2023-09-30T02:26:12;21.38;;;12.50;;
83139;SDS011;73027;54.208;19.128;2023-09-30T02:28:38;24.20;;;11.55;;
83139;SDS011;73027;54.208;19.128;2023-09-30T02:31:04;22.10;;;11.55;;
83139;SDS011;73027;54.208;19.128;2023-09-30T02:33:32;20.10;;;11.40;;
83139;SDS011;73027;54.208;19.128;2023-09-30T02:35:58;19.45;;;11.32;;
83139;SDS011;73027;54.208;19.128;2023-09-30T02:38:24;20.98;;;12.30;;
83139;SDS011;73027;54.208;19.128;2023-09-30T02:40:50;18.70;;;12.07;;
83139;SDS011;73027;54.208;19.128;2023-09-30T02:43:16;20.13;;;10.80;;
83139;SDS011;73027;54.208;19.128;2023-09-30T02:45:41;18.17;;;11.65;;
83139;SDS011;73027;54.208;19.128;2023-09-30T02:48:07;18.38;;;10.15;;
83139;SDS011;73027;54.208;19.128;2023-09-30T02:50:33;23.90;;;10.02;;
83139;SDS011;73027;54.208;19.128;2023-09-30T02:52:59;17.73;;;10.32;;
83139;SDS011;73027;54.208;19.128;2023-09-30T02:55:24;16.35;;;10.80;;
83139;SDS011;73027;54.208;19.128;2023-09-30T02:57:49;19.60;;;10.43;;
83139;SDS011;73027;54.208;19.128;2023-09-30T03:00:15;16.52;;;10.07;;
83139;SDS011;73027;54.208;19.128;2023-09-30T03:02:53;17.50;;;9.85;;
83139;SDS011;73027;54.208;19.128;2023-09-30T03:05:19;19.65;;;9.65;;
83139;SDS011;73027;54.208;19.128;2023-09-30T03:07:45;21.67;;;11.88;;
83139;SDS011;73027;54.208;19.128;2023-09-30T03:10:11;18.63;;;9.50;;
83139;SDS011;73027;54.208;19.128;2023-09-30T03:12:39;19.17;;;10.82;;
83139;SDS011;73027;54.208;19.128;2023-09-30T03:15:04;20.05;;;9.13;;
83139;SDS011;73027;54.208;19.128;2023-09-30T03:17:31;21.13;;;10.48;;
83139;SDS011;73027;54.208;19.128;2023-09-30T03:19:57;17.98;;;9.30;;
83139;SDS011;73027;54.208;19.128;2023-09-30T03:22:23;20.35;;;11.35;;
83139;SDS011;73027;54.208;19.128;2023-09-30T03:24:50;17.75;;;10.20;;
83139;SDS011;73027;54.208;19.128;2023-09-30T03:27:15;18.00;;;10.65;;
83139;SDS011;73027;54.208;19.128;2023-09-30T03:29:41;21.58;;;11.93;;
83139;SDS011;73027;54.208;19.128;2023-09-30T03:32:07;16.25;;;9.57;;
83139;SDS011;73027;54.208;19.128;2023-09-30T03:34:35;16.92;;;9.57;;
83139;SDS011;73027;54.208;19.128;2023-09-30T03:37:05;15.13;;;9.18;;
83139;SDS011;73027;54.208;19.128;2023-09-30T03:39:34;17.02;;;9.90;;
83139;SDS011;73027;54.208;19.128;2023-09-30T03:42:00;19.50;;;9.93;;
83139;SDS011;73027;54.208;19.128;2023-09-30T03:44:26;17.77;;;10.02;;
83139;SDS011;73027;54.208;19.128;2023-09-30T03:46:51;14.70;;;8.80;;
83139;SDS011;73027;54.208;19.128;2023-09-30T03:49:18;16.95;;;9.82;;
83139;SDS011;73027;54.208;19.128;2023-09-30T03:51:45;15.98;;;9.35;;
83139;SDS011;73027;54.208;19.128;2023-09-30T03:54:10;22.30;;;9.07;;
83139;SDS011;73027;54.208;19.128;2023-09-30T03:56:36;14.35;;;8.68;;
83139;SDS011;73027;54.208;19.128;2023-09-30T03:59:03;19.17;;;9.13;;
83139;SDS011;73027;54.208;19.128;2023-09-30T04:01:29;16.73;;;9.23;;
83139;SDS011;73027;54.208;19.128;2023-09-30T04:03:56;18.98;;;9.05;;
83139;SDS011;73027;54.208;19.128;2023-09-30T04:06:21;18.77;;;9.52;;
83139;SDS011;73027;54.208;19.128;2023-09-30T04:08:47;20.48;;;9.57;;
83139;SDS011;73027;54.208;19.128;2023-09-30T04:11:12;18.23;;;9.45;;
83139;SDS011;73027;54.208;19.128;2023-09-30T04:13:42;16.90;;;9.77;;
83139;SDS011;73027;54.208;19.128;2023-09-30T04:16:09;17.80;;;9.55;;
83139;SDS011;73027;54.208;19.128;2023-09-30T04:18:34;18.42;;;10.05;;
83139;SDS011;73027;54.208;19.128;2023-09-30T04:20:59;19.20;;;10.15;;
83139;SDS011;73027;54.208;19.128;2023-09-30T04:23:25;17.60;;;9.70;;
83139;SDS011;73027;54.208;19.128;2023-09-30T04:25:50;16.33;;;9.23;;
83139;SDS011;73027;54.208;19.128;2023-09-30T04:28:16;16.50;;;9.40;;
83139;SDS011;73027;54.208;19.128;2023-09-30T04:30:46;20.73;;;10.23;;
83139;SDS011;73027;54.208;19.128;2023-09-30T04:33:13;18.33;;;9.98;;
83139;SDS011;73027;54.208;19.128;2023-09-30T04:35:39;22.13;;;9.82;;
83139;SDS011;73027;54.208;19.128;2023-09-30T04:38:04;18.13;;;9.95;;
83139;SDS011;73027;54.208;19.128;2023-09-30T04:40:29;17.98;;;10.13;;
83139;SDS011;73027;54.208;19.128;2023-09-30T04:42:55;19.15;;;10.23;;
83139;SDS011;73027;54.208;19.128;2023-09-30T04:45:23;13.07;;;5.25;;
83139;SDS011;73027;54.208;19.128;2023-09-30T04:47:51;8.23;;;2.50;;
83139;SDS011;73027;54.208;19.128;2023-09-30T04:50:16;7.82;;;1.58;;
83139;SDS011;73027;54.208;19.128;2023-09-30T04:52:42;6.88;;;1.48;;
83139;SDS011;73027;54.208;19.128;2023-09-30T04:55:09;7.47;;;1.50;;
83139;SDS011;73027;54.208;19.128;2023-09-30T04:57:37;7.20;;;1.58;;
83139;SDS011;73027;54.208;19.128;2023-09-30T05:00:02;6.75;;;1.30;;
83139;SDS011;73027;54.208;19.128;2023-09-30T05:02:36;12.10;;;1.45;;
83139;SDS011;73027;54.208;19.128;2023-09-30T05:05:02;6.78;;;1.00;;
83139;SDS011;73027;54.208;19.128;2023-09-30T05:07:31;6.05;;;1.50;;
83139;SDS011;73027;54.208;19.128;2023-09-30T05:09:56;11.88;;;1.38;;
83139;SDS011;73027;54.208;19.128;2023-09-30T05:12:22;8.45;;;1.45;;
83139;SDS011;73027;54.208;19.128;2023-09-30T05:14:48;7.07;;;1.08;;
83139;SDS011;73027;54.208;19.128;2023-09-30T05:17:13;6.22;;;1.40;;
83139;SDS011;73027;54.208;19.128;2023-09-30T05:19:39;8.15;;;1.48;;
83139;SDS011;73027;54.208;19.128;2023-09-30T05:22:04;6.53;;;1.20;;
83139;SDS011;73027;54.208;19.128;2023-09-30T05:24:30;8.85;;;1.23;;
83139;SDS011;73027;54.208;19.128;2023-09-30T05:26:56;9.98;;;1.20;;
83139;SDS011;73027;54.208;19.128;2023-09-30T05:29:21;6.00;;;1.33;;
83139;SDS011;73027;54.208;19.128;2023-09-30T05:31:47;8.75;;;1.48;;
83139;SDS011;73027;54.208;19.128;2023-09-30T05:34:13;7.07;;;1.27;;
83139;SDS011;73027;54.208;19.128;2023-09-30T05:36:38;10.93;;;1.88;;
83139;SDS011;73027;54.208;19.128;2023-09-30T05:39:04;12.07;;;1.55;;
83139;SDS011;73027;54.208;19.128;2023-09-30T05:41:30;9.35;;;1.80;;
83139;SDS011;73027;54.208;19.128;2023-09-30T05:43:56;8.73;;;1.65;;
83139;SDS011;73027;54.208;19.128;2023-09-30T05:48:49;9.73;;;2.45;;
83139;SDS011;73027;54.208;19.128;2023-09-30T05:51:15;9.70;;;2.10;;
83139;SDS011;73027;54.208;19.128;2023-09-30T05:53:40;11.40;;;2.28;;
83139;SDS011;73027;54.208;19.128;2023-09-30T05:56:06;8.90;;;2.10;;
83139;SDS011;73027;54.208;19.128;2023-09-30T05:58:32;9.48;;;2.53;;
83139;SDS011;73027;54.208;19.128;2023-09-30T06:00:58;9.07;;;1.95;;
83139;SDS011;73027;54.208;19.128;2023-09-30T06:03:25;14.88;;;2.33;;
83139;SDS011;73027;54.208;19.128;2023-09-30T06:05:50;10.38;;;2.22;;
83139;SDS011;73027;54.208;19.128;2023-09-30T06:08:16;10.15;;;2.40;;
83139;SDS011;73027;54.208;19.128;2023-09-30T06:10:41;14.82;;;2.10;;
83139;SDS011;73027;54.208;19.128;2023-09-30T06:13:08;14.05;;;2.65;;
83139;SDS011;73027;54.208;19.128;2023-09-30T06:15:36;12.38;;;2.40;;
83139;SDS011;73027;54.208;19.128;2023-09-30T06:18:07;11.73;;;3.00;;
83139;SDS011;73027;54.208;19.128;2023-09-30T06:20:33;12.82;;;3.15;;
83139;SDS011;73027;54.208;19.128;2023-09-30T06:22:58;14.20;;;3.55;;
83139;SDS011;73027;54.208;19.128;2023-09-30T06:25:25;13.23;;;2.70;;
83139;SDS011;73027;54.208;19.128;2023-09-30T06:27:52;10.55;;;2.55;;
83139;SDS011;73027;54.208;19.128;2023-09-30T06:30:19;9.18;;;2.50;;
83139;SDS011;73027;54.208;19.128;2023-09-30T06:32:46;12.18;;;2.28;;
83139;SDS011;73027;54.208;19.128;2023-09-30T06:35:11;14.25;;;2.67;;
83139;SDS011;73027;54.208;19.128;2023-09-30T06:37:40;11.82;;;2.70;;
83139;SDS011;73027;54.208;19.128;2023-09-30T06:40:06;11.38;;;2.30;;
83139;SDS011;73027;54.208;19.128;2023-09-30T06:42:33;11.48;;;2.00;;
83139;SDS011;73027;54.208;19.128;2023-09-30T06:45:00;11.23;;;2.08;;
83139;SDS011;73027;54.208;19.128;2023-09-30T06:47:26;12.98;;;2.15;;
83139;SDS011;73027;54.208;19.128;2023-09-30T06:49:51;10.60;;;2.35;;
83139;SDS011;73027;54.208;19.128;2023-09-30T06:52:17;11.50;;;2.20;;
83139;SDS011;73027;54.208;19.128;2023-09-30T06:54:42;14.77;;;2.15;;
83139;SDS011;73027;54.208;19.128;2023-09-30T06:57:07;10.40;;;2.20;;
83139;SDS011;73027;54.208;19.128;2023-09-30T06:59:34;10.82;;;2.33;;
83139;SDS011;73027;54.208;19.128;2023-09-30T07:02:00;11.90;;;2.17;;
83139;SDS011;73027;54.208;19.128;2023-09-30T07:04:25;11.73;;;2.50;;
83139;SDS011;73027;54.208;19.128;2023-09-30T07:06:52;10.98;;;2.30;;
83139;SDS011;73027;54.208;19.128;2023-09-30T07:09:18;14.02;;;3.05;;
83139;SDS011;73027;54.208;19.128;2023-09-30T07:11:44;10.45;;;2.38;;
83139;SDS011;73027;54.208;19.128;2023-09-30T07:14:10;16.85;;;2.95;;
83139;SDS011;73027;54.208;19.128;2023-09-30T07:16:35;10.80;;;2.17;;
83139;SDS011;73027;54.208;19.128;2023-09-30T07:19:01;12.90;;;3.80;;
83139;SDS011;73027;54.208;19.128;2023-09-30T07:21:27;11.02;;;2.50;;
83139;SDS011;73027;54.208;19.128;2023-09-30T07:23:53;13.13;;;2.88;;
83139;SDS011;73027;54.208;19.128;2023-09-30T07:26:22;13.15;;;3.10;;
83139;SDS011;73027;54.208;19.128;2023-09-30T07:28:52;12.63;;;2.42;;
83139;SDS011;73027;54.208;19.128;2023-09-30T07:31:19;12.43;;;2.50;;
83139;SDS011;73027;54.208;19.128;2023-09-30T07:33:45;18.73;;;4.30;;
83139;SDS011;73027;54.208;19.128;2023-09-30T07:36:10;54.10;;;23.23;;
83139;SDS011;73027;54.208;19.128;2023-09-30T07:38:37;14.18;;;3.70;;
83139;SDS011;73027;54.208;19.128;2023-09-30T07:41:02;13.07;;;2.90;;
83139;SDS011;73027;54.208;19.128;2023-09-30T07:43:29;12.02;;;2.70;;
83139;SDS011;73027;54.208;19.128;2023-09-30T07:45:55;14.63;;;3.33;;
83139;SDS011;73027;54.208;19.128;2023-09-30T07:48:21;14.27;;;2.88;;
83139;SDS011;73027;54.208;19.128;2023-09-30T07:50:46;11.60;;;2.65;;
83139;SDS011;73027;54.208;19.128;2023-09-30T07:53:12;13.68;;;2.65;;
83139;SDS011;73027;54.208;19.128;2023-09-30T07:55:38;12.02;;;2.53;;
83139;SDS011;73027;54.208;19.128;2023-09-30T07:58:04;15.02;;;3.78;;
83139;SDS011;73027;54.208;19.128;2023-09-30T08:00:29;14.77;;;5.90;;
83139;SDS011;73027;54.208;19.128;2023-09-30T08:02:55;9.73;;;2.63;;
83139;SDS011;73027;54.208;19.128;2023-09-30T08:05:20;16.23;;;4.57;;
83139;SDS011;73027;54.208;19.128;2023-09-30T08:07:46;22.50;;;8.88;;
83139;SDS011;73027;54.208;19.128;2023-09-30T08:10:11;27.38;;;13.50;;
83139;SDS011;73027;54.208;19.128;2023-09-30T08:12:38;10.15;;;3.00;;
83139;SDS011;73027;54.208;19.128;2023-09-30T08:15:05;10.15;;;2.53;;
83139;SDS011;73027;54.208;19.128;2023-09-30T08:17:31;21.05;;;3.60;;
83139;SDS011;73027;54.208;19.128;2023-09-30T08:19:58;18.33;;;5.82;;
83139;SDS011;73027;54.208;19.128;2023-09-30T08:22:24;31.15;;;15.73;;
83139;SDS011;73027;54.208;19.128;2023-09-30T08:24:52;27.77;;;12.93;;
83139;SDS011;73027;54.208;19.128;2023-09-30T08:27:18;11.82;;;3.15;;
83139;SDS011;73027;54.208;19.128;2023-09-30T08:29:45;17.50;;;5.82;;
83139;SDS011;73027;54.208;19.128;2023-09-30T08:32:11;15.30;;;3.92;;
83139;SDS011;73027;54.208;19.128;2023-09-30T08:34:36;10.45;;;3.10;;
83139;SDS011;73027;54.208;19.128;2023-09-30T08:37:01;12.88;;;2.70;;
83139;SDS011;73027;54.208;19.128;2023-09-30T08:39:27;13.23;;;2.88;;
83139;SDS011;73027;54.208;19.128;2023-09-30T08:41:54;10.30;;;2.53;;
83139;SDS011;73027;54.208;19.128;2023-09-30T08:44:20;8.85;;;2.40;;
83139;SDS011;73027;54.208;19.128;2023-09-30T08:46:45;13.35;;;3.72;;
83139;SDS011;73027;54.208;19.128;2023-09-30T08:49:12;12.48;;;2.22;;
83139;SDS011;73027;54.208;19.128;2023-09-30T08:51:39;13.35;;;2.45;;
83139;SDS011;73027;54.208;19.128;2023-09-30T08:54:05;16.75;;;2.80;;
83139;SDS011;73027;54.208;19.128;2023-09-30T08:56:31;11.10;;;2.15;;
83139;SDS011;73027;54.208;19.128;2023-09-30T08:58:58;12.85;;;2.58;;
83139;SDS011;73027;54.208;19.128;2023-09-30T09:03:54;12.88;;;2.53;;
83139;SDS011;73027;54.208;19.128;2023-09-30T09:06:23;10.98;;;2.10;;
83139;SDS011;73027;54.208;19.128;2023-09-30T09:08:50;12.55;;;2.47;;
83139;SDS011;73027;54.208;19.128;2023-09-30T09:11:17;10.75;;;2.08;;
83139;SDS011;73027;54.208;19.128;2023-09-30T09:13:50;11.10;;;2.08;;
83139;SDS011;73027;54.208;19.128;2023-09-30T09:16:20;10.30;;;2.22;;
83139;SDS011;73027;54.208;19.128;2023-09-30T09:18:46;13.15;;;2.40;;
83139;SDS011;73027;54.208;19.128;2023-09-30T09:23:46;10.93;;;2.10;;
83139;SDS011;73027;54.208;19.128;2023-09-30T09:26:18;10.18;;;2.00;;
83139;SDS011;73027;54.208;19.128;2023-09-30T09:34:04;11.65;;;1.77;;
83139;SDS011;73027;54.208;19.128;2023-09-30T09:36:45;10.95;;;1.95;;
83139;SDS011;73027;54.208;19.128;2023-09-30T09:39:11;10.02;;;1.90;;
83139;SDS011;73027;54.208;19.128;2023-09-30T09:41:51;9.10;;;1.90;;
83139;SDS011;73027;54.208;19.128;2023-09-30T09:44:17;10.50;;;1.80;;
83139;SDS011;73027;54.208;19.128;2023-09-30T09:46:44;10.20;;;1.75;;
83139;SDS011;73027;54.208;19.128;2023-09-30T09:49:12;8.75;;;1.77;;
83139;SDS011;73027;54.208;19.128;2023-09-30T09:51:38;9.65;;;1.50;;
83139;SDS011;73027;54.208;19.128;2023-09-30T09:54:04;10.52;;;1.70;;
83139;SDS011;73027;54.208;19.128;2023-09-30T09:56:33;11.43;;;1.67;;
83139;SDS011;73027;54.208;19.128;2023-09-30T09:59:00;10.32;;;1.50;;
83139;SDS011;73027;54.208;19.128;2023-09-30T10:01:29;10.23;;;1.75;;
83139;SDS011;73027;54.208;19.128;2023-09-30T10:03:59;13.13;;;1.98;;
83139;SDS011;73027;54.208;19.128;2023-09-30T10:06:25;7.95;;;1.80;;
83139;SDS011;73027;54.208;19.128;2023-09-30T10:08:51;8.80;;;1.83;;
83139;SDS011;73027;54.208;19.128;2023-09-30T10:11:18;14.98;;;2.35;;
83139;SDS011;73027;54.208;19.128;2023-09-30T10:13:50;12.00;;;1.80;;
83139;SDS011;73027;54.208;19.128;2023-09-30T10:19:07;10.45;;;2.10;;
83139;SDS011;73027;54.208;19.128;2023-09-30T10:24:44;10.15;;;2.10;;
83139;SDS011;73027;54.208;19.128;2023-09-30T10:35:15;11.75;;;1.83;;
83139;SDS011;73027;54.208;19.128;2023-09-30T10:37:43;7.95;;;1.27;;
83139;SDS011;73027;54.208;19.128;2023-09-30T10:40:09;8.93;;;1.83;;
83139;SDS011;73027;54.208;19.128;2023-09-30T10:42:50;10.38;;;2.08;;
83139;SDS011;73027;54.208;19.128;2023-09-30T10:50:52;9.30;;;1.90;;
83139;SDS011;73027;54.208;19.128;2023-09-30T10:53:22;11.32;;;2.53;;
83139;SDS011;73027;54.208;19.128;2023-09-30T10:55:53;9.48;;;2.35;;
83139;SDS011;73027;54.208;19.128;2023-09-30T10:58:20;9.07;;;2.17;;
83139;SDS011;73027;54.208;19.128;2023-09-30T11:00:53;9.90;;;2.00;;
83139;SDS011;73027;54.208;19.128;2023-09-30T11:03:22;10.35;;;1.88;;
83139;SDS011;73027;54.208;19.128;2023-09-30T11:05:48;7.45;;;1.80;;
83139;SDS011;73027;54.208;19.128;2023-09-30T11:08:14;10.25;;;1.73;;
83139;SDS011;73027;54.208;19.128;2023-09-30T11:10:48;14.50;;;1.98;;
83139;SDS011;73027;54.208;19.128;2023-09-30T11:13:18;7.18;;;1.33;;
83139;SDS011;73027;54.208;19.128;2023-09-30T11:15:44;8.90;;;1.83;;
83139;SDS011;73027;54.208;19.128;2023-09-30T11:18:17;10.45;;;2.00;;
83139;SDS011;73027;54.208;19.128;2023-09-30T11:23:09;10.10;;;1.73;;
83139;SDS011;73027;54.208;19.128;2023-09-30T11:25:39;9.88;;;1.90;;
83139;SDS011;73027;54.208;19.128;2023-09-30T11:28:15;10.13;;;2.00;;
83139;SDS011;73027;54.208;19.128;2023-09-30T11:33:31;13.02;;;2.00;;
83139;SDS011;73027;54.208;19.128;2023-09-30T11:36:05;10.45;;;1.67;;
83139;SDS011;73027;54.208;19.128;2023-09-30T11:38:32;10.18;;;1.80;;
83139;SDS011;73027;54.208;19.128;2023-09-30T11:41:04;12.65;;;2.20;;
83139;SDS011;73027;54.208;19.128;2023-09-30T11:43:31;11.27;;;2.00;;
83139;SDS011;73027;54.208;19.128;2023-09-30T11:46:04;18.98;;;5.95;;
83139;SDS011;73027;54.208;19.128;2023-09-30T11:51:30;10.80;;;2.47;;
83139;SDS011;73027;54.208;19.128;2023-09-30T11:54:11;13.40;;;2.75;;
83139;SDS011;73027;54.208;19.128;2023-09-30T11:56:36;8.57;;;2.33;;
83139;SDS011;73027;54.208;19.128;2023-09-30T11:59:02;13.13;;;2.00;;
83139;SDS011;73027;54.208;19.128;2023-09-30T12:01:29;11.25;;;2.35;;
83139;SDS011;73027;54.208;19.128;2023-09-30T12:03:57;12.05;;;2.00;;
83139;SDS011;73027;54.208;19.128;2023-09-30T12:06:23;14.23;;;1.90;;
83139;SDS011;73027;54.208;19.128;2023-09-30T12:08:48;13.35;;;2.40;;
83139;SDS011;73027;54.208;19.128;2023-09-30T12:11:17;11.80;;;2.53;;
83139;SDS011;73027;54.208;19.128;2023-09-30T12:13:43;13.75;;;2.30;;
83139;SDS011;73027;54.208;19.128;2023-09-30T12:16:09;15.63;;;2.97;;
83139;SDS011;73027;54.208;19.128;2023-09-30T12:18:37;9.07;;;1.98;;
83139;SDS011;73027;54.208;19.128;2023-09-30T12:21:03;13.02;;;2.42;;
83139;SDS011;73027;54.208;19.128;2023-09-30T12:23:31;11.25;;;2.15;;
83139;SDS011;73027;54.208;19.128;2023-09-30T12:25:56;11.93;;;2.40;;
83139;SDS011;73027;54.208;19.128;2023-09-30T12:28:22;14.10;;;3.13;;
83139;SDS011;73027;54.208;19.128;2023-09-30T12:30:47;9.63;;;2.72;;
83139;SDS011;73027;54.208;19.128;2023-09-30T12:33:12;12.82;;;2.80;;
83139;SDS011;73027;54.208;19.128;2023-09-30T12:35:38;13.00;;;2.70;;
83139;SDS011;73027;54.208;19.128;2023-09-30T12:38:03;9.02;;;2.28;;
83139;SDS011;73027;54.208;19.128;2023-09-30T12:40:28;10.73;;;2.78;;
83139;SDS011;73027;54.208;19.128;2023-09-30T12:42:54;13.23;;;2.40;;
83139;SDS011;73027;54.208;19.128;2023-09-30T12:45:20;13.73;;;2.17;;
83139;SDS011;73027;54.208;19.128;2023-09-30T12:47:45;10.60;;;2.60;;
83139;SDS011;73027;54.208;19.128;2023-09-30T12:50:12;9.88;;;2.17;;
83139;SDS011;73027;54.208;19.128;2023-09-30T12:52:37;9.90;;;2.30;;
83139;SDS011;73027;54.208;19.128;2023-09-30T12:55:03;12.63;;;3.28;;
83139;SDS011;73027;54.208;19.128;2023-09-30T12:57:29;11.10;;;2.67;;
83139;SDS011;73027;54.208;19.128;2023-09-30T12:59:55;11.05;;;2.15;;
83139;SDS011;73027;54.208;19.128;2023-09-30T13:02:21;17.02;;;2.17;;
83139;SDS011;73027;54.208;19.128;2023-09-30T13:04:46;10.07;;;2.30;;
83139;SDS011;73027;54.208;19.128;2023-09-30T13:07:12;11.68;;;2.40;;
83139;SDS011;73027;54.208;19.128;2023-09-30T13:09:41;10.05;;;2.72;;
83139;SDS011;73027;54.208;19.128;2023-09-30T13:12:07;10.75;;;2.58;;
83139;SDS011;73027;54.208;19.128;2023-09-30T13:14:34;13.27;;;2.55;;
83139;SDS011;73027;54.208;19.128;2023-09-30T13:16:59;9.02;;;1.98;;
83139;SDS011;73027;54.208;19.128;2023-09-30T13:19:26;10.55;;;2.90;;
83139;SDS011;73027;54.208;19.128;2023-09-30T13:21:51;10.00;;;1.90;;
83139;SDS011;73027;54.208;19.128;2023-09-30T13:24:20;11.05;;;2.15;;
83139;SDS011;73027;54.208;19.128;2023-09-30T13:26:46;9.40;;;2.42;;
83139;SDS011;73027;54.208;19.128;2023-09-30T13:29:12;11.75;;;2.50;;
83139;SDS011;73027;54.208;19.128;2023-09-30T13:31:38;11.52;;;2.40;;
83139;SDS011;73027;54.208;19.128;2023-09-30T13:34:04;8.25;;;1.88;;
83139;SDS011;73027;54.208;19.128;2023-09-30T13:36:30;9.90;;;2.53;;
83139;SDS011;73027;54.208;19.128;2023-09-30T13:38:56;13.25;;;2.75;;
83139;SDS011;73027;54.208;19.128;2023-09-30T13:41:21;16.25;;;2.50;;
83139;SDS011;73027;54.208;19.128;2023-09-30T13:43:47;10.48;;;2.15;;
83139;SDS011;73027;54.208;19.128;2023-09-30T13:46:12;11.60;;;1.63;;
83139;SDS011;73027;54.208;19.128;2023-09-30T13:48:38;11.18;;;2.30;;
83139;SDS011;73027;54.208;19.128;2023-09-30T13:51:07;11.00;;;2.17;;
83139;SDS011;73027;54.208;19.128;2023-09-30T13:53:34;11.02;;;2.20;;
83139;SDS011;73027;54.208;19.128;2023-09-30T13:56:00;10.02;;;2.40;;
83139;SDS011;73027;54.208;19.128;2023-09-30T13:58:25;10.63;;;2.50;;
83139;SDS011;73027;54.208;19.128;2023-09-30T14:00:50;11.35;;;2.53;;
83139;SDS011;73027;54.208;19.128;2023-09-30T14:03:19;9.15;;;2.10;;
83139;SDS011;73027;54.208;19.128;2023-09-30T14:05:45;14.32;;;2.47;;
83139;SDS011;73027;54.208;19.128;2023-09-30T14:08:11;10.35;;;2.20;;
83139;SDS011;73027;54.208;19.128;2023-09-30T14:10:37;15.98;;;2.80;;
83139;SDS011;73027;54.208;19.128;2023-09-30T14:13:02;10.20;;;3.05;;
83139;SDS011;73027;54.208;19.128;2023-09-30T14:15:28;14.27;;;5.13;;
83139;SDS011;73027;54.208;19.128;2023-09-30T14:17:56;13.10;;;3.25;;
83139;SDS011;73027;54.208;19.128;2023-09-30T14:20:22;12.35;;;2.70;;
83139;SDS011;73027;54.208;19.128;2023-09-30T14:22:48;15.05;;;2.80;;
83139;SDS011;73027;54.208;19.128;2023-09-30T14:25:13;10.15;;;3.17;;
83139;SDS011;73027;54.208;19.128;2023-09-30T14:27:39;9.40;;;1.55;;
83139;SDS011;73027;54.208;19.128;2023-09-30T14:30:05;9.20;;;2.05;;
83139;SDS011;73027;54.208;19.128;2023-09-30T14:32:31;10.95;;;2.33;;
83139;SDS011;73027;54.208;19.128;2023-09-30T14:34:57;11.93;;;2.00;;
83139;SDS011;73027;54.208;19.128;2023-09-30T14:37:23;9.85;;;1.83;;
83139;SDS011;73027;54.208;19.128;2023-09-30T14:39:48;10.68;;;1.90;;
83139;SDS011;73027;54.208;19.128;2023-09-30T14:42:14;9.55;;;1.95;;
83139;SDS011;73027;54.208;19.128;2023-09-30T14:44:39;10.20;;;1.77;;
83139;SDS011;73027;54.208;19.128;2023-09-30T14:47:05;9.25;;;1.98;;
83139;SDS011;73027;54.208;19.128;2023-09-30T14:49:30;11.35;;;2.40;;
83139;SDS011;73027;54.208;19.128;2023-09-30T14:51:56;10.63;;;2.10;;
83139;SDS011;73027;54.208;19.128;2023-09-30T14:54:22;9.50;;;2.53;;
83139;SDS011;73027;54.208;19.128;2023-09-30T14:56:48;9.68;;;2.25;;
83139;SDS011;73027;54.208;19.128;2023-09-30T14:59:13;9.15;;;1.92;;
83139;SDS011;73027;54.208;19.128;2023-09-30T15:01:39;11.95;;;2.30;;